createdAt,value
2022-11-16T00:01:22.753Z,8.34
2022-11-16T00:04:26.496Z,8.55
2022-11-16T00:07:30.497Z,8.67
2022-11-16T00:10:34.539Z,8.64
2022-11-16T00:13:41.273Z,8.59
2022-11-16T00:16:46.127Z,8.68
2022-11-16T00:19:50.142Z,8.64
2022-11-16T00:22:53.536Z,8.61
2022-11-16T00:25:57.308Z,8.53
2022-11-16T00:29:00.837Z,8.41
2022-11-16T00:32:06.588Z,8.38
2022-11-16T00:35:11.210Z,8.45
2022-11-16T00:38:15.359Z,8.35
2022-11-16T00:41:20.384Z,8.50
2022-11-16T00:44:24.226Z,8.31
2022-11-16T00:47:29.589Z,8.35
2022-11-16T00:50:33.597Z,8.20
2022-11-16T00:53:37.660Z,8.18
2022-11-16T00:56:41.921Z,8.37
2022-11-16T00:59:45.462Z,8.40
2022-11-16T01:02:52.622Z,8.27
2022-11-16T01:06:01.903Z,8.33
2022-11-16T01:09:05.818Z,8.28
2022-11-16T01:12:10.936Z,8.03
2022-11-16T01:15:15.278Z,8.28
2022-11-16T01:18:20.149Z,8.14
2022-11-16T01:21:24.922Z,8.04
2022-11-16T01:24:29.045Z,8.17
2022-11-16T01:27:33.083Z,8.27
2022-11-16T01:30:38.406Z,8.28
2022-11-16T01:33:47.656Z,8.33
2022-11-16T01:36:57.702Z,8.42
2022-11-16T01:40:05.506Z,8.35
2022-11-16T01:43:17.473Z,8.33
2022-11-16T01:46:23.373Z,8.26
2022-11-16T01:49:36.320Z,8.19
2022-11-16T01:52:43.850Z,8.31
2022-11-16T01:55:49.771Z,8.27
2022-11-16T01:59:18.004Z,8.29
2022-11-16T02:02:22.454Z,8.35
2022-11-16T02:05:47.737Z,8.36
2022-11-16T02:09:24.767Z,7.82
2022-11-16T02:13:01.084Z,8.11
2022-11-16T02:16:28.243Z,8.16
2022-11-16T02:20:01.826Z,8.19
2022-11-16T02:23:45.081Z,8.27
2022-11-16T02:27:27.272Z,8.29
2022-11-16T02:30:33.394Z,8.26
2022-11-16T02:33:42.234Z,8.30
2022-11-16T02:36:50.774Z,8.41
2022-11-16T02:39:59.464Z,8.31
2022-11-16T02:43:08.621Z,8.36
2022-11-16T02:46:20.690Z,8.20
2022-11-16T02:49:26.671Z,8.27
2022-11-16T02:52:31.045Z,8.20
2022-11-16T02:55:37.333Z,8.19
2022-11-16T02:58:41.438Z,8.24
2022-11-16T03:01:53.453Z,7.97
2022-11-16T03:05:02.633Z,8.13
2022-11-16T03:08:19.593Z,7.94
2022-11-16T03:11:41.294Z,7.89
2022-11-16T03:14:50.356Z,8.11
2022-11-16T03:17:56.275Z,8.13
2022-11-16T03:21:11.191Z,8.04
2022-11-16T03:24:15.802Z,7.64
2022-11-16T03:27:31.369Z,7.48
2022-11-16T03:30:41.638Z,7.44
2022-11-16T03:33:51.649Z,7.58
2022-11-16T03:37:15.092Z,7.69
2022-11-16T03:40:21.602Z,7.66
2022-11-16T03:43:28.667Z,7.81
2022-11-16T03:46:32.305Z,7.88
2022-11-16T03:49:55.978Z,7.88
2022-11-16T03:53:00.906Z,7.94
2022-11-16T03:56:05.458Z,7.73
2022-11-16T03:59:09.079Z,7.60
2022-11-16T04:02:13.052Z,7.28
2022-11-16T04:05:36.154Z,7.63
2022-11-16T04:08:58.160Z,7.63
2022-11-16T04:12:19.205Z,7.67
2022-11-16T04:15:41.554Z,7.61
2022-11-16T04:19:02.983Z,7.77
2022-11-16T04:22:34.442Z,7.72
2022-11-16T04:25:41.284Z,7.77
2022-11-16T04:28:50.482Z,7.70
2022-11-16T04:32:11.336Z,7.48
2022-11-16T04:35:32.532Z,7.61
2022-11-16T04:38:37.902Z,7.61
2022-11-16T04:41:59.231Z,7.61
2022-11-16T04:45:23.861Z,7.46
2022-11-16T04:48:29.870Z,7.53
2022-11-16T04:51:33.552Z,7.63
2022-11-16T04:54:39.223Z,7.60
2022-11-16T04:57:43.230Z,7.46
2022-11-16T05:00:50.235Z,7.12
2022-11-16T05:03:54.237Z,7.19
2022-11-16T05:06:58.750Z,7.32
2022-11-16T05:10:05.459Z,7.46
2022-11-16T05:13:09.602Z,7.41
2022-11-16T05:16:13.166Z,7.27
2022-11-16T05:19:34.399Z,7.26
2022-11-16T05:22:38.418Z,7.53
2022-11-16T05:25:44.541Z,7.59
2022-11-16T05:28:48.039Z,7.69
2022-11-16T05:31:51.899Z,7.62
2022-11-16T05:34:55.796Z,7.60
2022-11-16T05:38:01.310Z,7.68
2022-11-16T05:41:08.107Z,7.66
2022-11-16T05:44:12.169Z,7.65
2022-11-16T05:47:16.171Z,7.75
2022-11-16T05:50:20.332Z,7.48
2022-11-16T05:53:36.479Z,7.53
2022-11-16T05:56:43.377Z,7.52
2022-11-16T05:59:46.886Z,7.64
2022-11-16T06:02:51.587Z,7.75
2022-11-16T06:06:00.111Z,7.94
2022-11-16T06:09:06.164Z,7.90
2022-11-16T06:12:12.294Z,7.86
2022-11-16T06:15:16.354Z,7.90
2022-11-16T06:18:19.987Z,7.71
2022-11-16T06:21:25.057Z,8.03
2022-11-16T06:24:29.872Z,8.14
2022-11-16T06:27:36.130Z,8.21
2022-11-16T06:30:40.650Z,8.30
2022-11-16T06:33:45.464Z,8.24
2022-11-16T06:36:57.330Z,8.31
2022-11-16T06:40:01.562Z,8.47
2022-11-16T06:43:10.477Z,8.61
2022-11-16T06:46:14.813Z,8.23
2022-11-16T06:49:18.664Z,8.56
2022-11-16T06:52:23.374Z,8.56
2022-11-16T06:55:27.382Z,8.57
2022-11-16T06:58:33.789Z,8.68
2022-11-16T07:01:37.738Z,8.73
2022-11-16T07:04:47.660Z,8.92
2022-11-16T07:07:55.399Z,8.95
2022-11-16T07:11:04.452Z,9.00
2022-11-16T07:14:11.832Z,9.07
2022-11-16T07:17:15.923Z,9.19
2022-11-16T07:20:19.558Z,9.22
2022-11-16T07:23:24.266Z,9.11
2022-11-16T07:26:28.920Z,9.02
2022-11-16T07:29:43.645Z,9.21
2022-11-16T07:33:05.699Z,9.33
2022-11-16T07:36:44.666Z,9.49
2022-11-16T07:39:48.197Z,9.52
2022-11-16T07:42:52.630Z,9.52
2022-11-16T07:49:49.025Z,9.66
2022-11-16T07:52:56.114Z,9.76
2022-11-16T07:55:59.874Z,9.76
2022-11-16T07:59:06.090Z,9.82
2022-11-16T08:02:15.375Z,9.71
2022-11-16T08:05:20.486Z,9.74
2022-11-16T08:08:26.447Z,9.73
2022-11-16T08:11:29.909Z,9.89
2022-11-16T08:14:33.882Z,9.83
2022-11-16T08:17:39.557Z,10.04
2022-11-16T08:20:46.644Z,9.90
2022-11-16T08:23:55.261Z,10.03
2022-11-16T08:27:02.328Z,10.18
2022-11-16T08:30:09.884Z,10.34
2022-11-16T08:33:17.925Z,10.36
2022-11-16T08:36:22.050Z,10.40
2022-11-16T08:39:26.501Z,10.48
2022-11-16T08:42:30.192Z,10.57
2022-11-16T08:45:34.584Z,10.64
2022-11-16T08:48:39.752Z,10.58
2022-11-16T08:51:44.194Z,10.73
2022-11-16T08:54:47.879Z,10.88
2022-11-16T08:57:53.542Z,10.98
2022-11-16T09:00:57.111Z,11.03
2022-11-16T09:04:02.293Z,11.06
2022-11-16T09:07:05.667Z,11.15
2022-11-16T09:10:10.423Z,11.19
2022-11-16T09:13:13.889Z,11.18
2022-11-16T09:16:20.709Z,11.10
2022-11-16T09:19:25.639Z,11.21
2022-11-16T09:22:29.652Z,11.25
2022-11-16T09:25:33.082Z,11.30
2022-11-16T09:28:37.151Z,11.36
2022-11-16T09:31:40.748Z,11.35
2022-11-16T09:34:46.439Z,11.35
2022-11-16T09:37:50.787Z,11.44
2022-11-16T09:40:59.031Z,11.55
2022-11-16T09:44:13.578Z,11.48
2022-11-16T09:47:21.963Z,11.59
2022-11-16T09:50:42.677Z,11.49
2022-11-16T09:53:50.595Z,11.61
2022-11-16T09:57:00.664Z,11.65
2022-11-16T10:00:15.634Z,11.75
2022-11-16T10:03:20.505Z,11.80
2022-11-16T10:06:36.981Z,11.85
2022-11-16T10:09:41.384Z,11.94
2022-11-16T10:12:51.592Z,11.99
2022-11-16T10:16:08.179Z,12.02
2022-11-16T10:19:22.739Z,12.10
2022-11-16T10:22:46.254Z,12.10
2022-11-16T10:25:55.863Z,12.22
2022-11-16T10:29:28.152Z,12.22
2022-11-16T10:32:38.190Z,12.36
2022-11-16T10:35:47.412Z,12.41
2022-11-16T10:38:53.383Z,12.46
2022-11-16T10:42:07.238Z,12.52
2022-11-16T10:45:20.753Z,12.57
2022-11-16T10:48:37.542Z,12.66
2022-11-16T10:51:41.970Z,12.76
2022-11-16T10:54:47.089Z,12.81
2022-11-16T10:57:59.257Z,12.86
2022-11-16T11:01:03.076Z,12.97
2022-11-16T11:04:16.198Z,12.99
2022-11-16T11:07:30.599Z,13.13
2022-11-16T11:10:37.674Z,13.19
2022-11-16T11:14:10.185Z,13.23
2022-11-16T11:17:19.134Z,13.29
2022-11-16T11:20:25.043Z,13.35
2022-11-16T11:23:29.217Z,13.36
2022-11-16T11:26:37.630Z,13.38
2022-11-16T11:29:44.222Z,13.41
2022-11-16T11:32:48.481Z,13.44
2022-11-16T11:36:01.855Z,13.44
2022-11-16T11:39:08.484Z,13.48
2022-11-16T11:42:24.545Z,13.47
2022-11-16T11:45:36.431Z,13.53
2022-11-16T11:48:49.394Z,13.57
2022-11-16T11:51:55.958Z,13.65
2022-11-16T11:55:01.541Z,13.70
2022-11-16T11:58:08.105Z,13.73
2022-11-16T12:01:35.467Z,13.72
2022-11-16T12:05:24.419Z,13.69
2022-11-16T12:08:48.062Z,13.74
2022-11-16T12:12:02.650Z,13.75
2022-11-16T12:15:28.103Z,13.78
2022-11-16T12:18:46.440Z,13.86
2022-11-16T12:22:04.330Z,13.87
2022-11-16T12:25:21.970Z,13.88
2022-11-16T12:28:44.918Z,13.93
2022-11-16T12:32:07.425Z,13.91
2022-11-16T12:35:33.058Z,13.92
2022-11-16T12:38:55.244Z,13.95
2022-11-16T12:42:26.905Z,13.97
2022-11-16T12:45:50.632Z,13.89
2022-11-16T12:49:27.696Z,13.91
2022-11-16T12:53:05.435Z,13.91
2022-11-16T12:56:21.091Z,13.99
2022-11-16T12:59:45.065Z,14.00
2022-11-16T13:03:11.526Z,14.01
2022-11-16T13:06:21.194Z,14.06
2022-11-16T13:09:28.848Z,14.03
2022-11-16T13:12:33.786Z,14.06
2022-11-16T13:15:40.560Z,13.99
2022-11-16T13:18:45.410Z,14.03
2022-11-16T13:21:56.270Z,14.03
2022-11-16T13:25:05.920Z,14.02
2022-11-16T13:28:23.055Z,13.99
2022-11-16T13:31:34.686Z,14.01
2022-11-16T13:34:40.896Z,14.06
2022-11-16T13:37:49.764Z,14.05
2022-11-16T13:40:53.527Z,14.05
2022-11-16T13:43:57.462Z,14.03
2022-11-16T13:47:06.059Z,14.06
2022-11-16T13:50:19.953Z,14.02
2022-11-16T13:54:24.980Z,14.00
2022-11-16T13:56:53.031Z,14.02
2022-11-16T14:00:11.626Z,13.95
2022-11-16T14:03:31.664Z,13.95
2022-11-16T14:06:59.410Z,13.93
2022-11-16T14:10:07.932Z,13.99
2022-11-16T14:13:39.363Z,13.90
2022-11-16T14:16:48.900Z,13.94
2022-11-16T14:19:57.742Z,13.92
2022-11-16T14:23:36.922Z,13.82
2022-11-16T14:26:58.341Z,13.81
2022-11-16T14:30:15.138Z,13.83
2022-11-16T14:33:31.307Z,13.77
2022-11-16T14:36:42.650Z,13.74
2022-11-16T14:39:47.047Z,13.79
2022-11-16T14:43:15.273Z,13.75
2022-11-16T14:46:24.208Z,13.75
2022-11-16T14:49:29.190Z,13.76
2022-11-16T14:52:39.707Z,13.75
2022-11-16T14:55:44.959Z,13.77
2022-11-16T14:58:54.519Z,13.73
2022-11-16T15:01:58.300Z,13.76
2022-11-16T15:05:02.329Z,13.75
2022-11-16T15:08:18.499Z,13.67
2022-11-16T15:11:47.361Z,13.67
2022-11-16T15:14:55.390Z,13.66
2022-11-16T15:18:15.095Z,13.63
2022-11-16T15:21:23.590Z,13.67
2022-11-16T15:24:31.072Z,13.69
2022-11-16T15:27:38.175Z,13.67
2022-11-16T15:30:46.849Z,13.62
2022-11-16T15:33:51.114Z,13.61
2022-11-16T15:36:55.152Z,13.60
2022-11-16T15:40:00.221Z,13.60
2022-11-16T15:43:07.003Z,13.58
2022-11-16T15:49:45.382Z,13.54
2022-11-16T15:52:53.099Z,13.61
2022-11-16T15:55:57.009Z,13.57
2022-11-16T15:59:10.635Z,13.55
2022-11-16T16:02:20.142Z,13.56
2022-11-16T16:05:34.831Z,13.56
2022-11-16T16:08:41.751Z,13.56
2022-11-16T16:11:45.263Z,13.55
2022-11-16T16:14:50.205Z,13.53
2022-11-16T16:17:55.665Z,13.54
2022-11-16T16:20:59.542Z,13.52
2022-11-16T16:24:03.839Z,13.52
2022-11-16T16:27:13.294Z,13.50
2022-11-16T16:30:18.088Z,13.52
2022-11-16T16:33:28.552Z,13.56
2022-11-16T16:36:32.183Z,13.54
2022-11-16T16:39:36.246Z,13.53
2022-11-16T16:42:40.935Z,13.51
2022-11-16T16:45:45.527Z,13.48
2022-11-16T16:48:50.218Z,13.48
2022-11-16T16:51:54.372Z,13.46
2022-11-16T16:54:57.784Z,13.48
2022-11-16T16:58:03.156Z,13.52
2022-11-16T17:01:07.236Z,13.47
2022-11-16T17:04:12.329Z,13.44
2022-11-16T17:07:16.264Z,13.40
2022-11-16T17:10:21.301Z,13.42
2022-11-16T17:13:24.715Z,13.43
2022-11-16T17:16:28.357Z,13.41
2022-11-16T17:19:33.245Z,13.41
2022-11-16T17:22:37.563Z,13.41
2022-11-16T17:25:41.000Z,13.44
2022-11-16T17:28:44.722Z,13.38
2022-11-16T17:31:48.896Z,13.37
2022-11-16T17:34:54.126Z,13.39
2022-11-16T17:37:58.717Z,13.36
2022-11-16T17:41:06.936Z,13.31
2022-11-16T17:44:10.271Z,13.32
2022-11-16T17:47:13.935Z,13.29
2022-11-16T17:50:18.755Z,13.35
2022-11-16T17:53:22.418Z,13.29
2022-11-16T17:56:28.062Z,13.22
2022-11-16T17:59:31.714Z,13.27
2022-11-16T18:02:35.163Z,13.27
2022-11-16T18:05:40.328Z,13.28
2022-11-16T18:08:44.933Z,13.27
2022-11-16T18:11:48.696Z,13.29
2022-11-16T18:15:21.334Z,13.31
2022-11-16T18:18:18.022Z,13.29
2022-11-16T18:21:23.145Z,13.29
2022-11-16T18:24:27.215Z,13.32
2022-11-16T18:27:30.886Z,13.31
2022-11-16T18:30:34.710Z,13.32
2022-11-16T18:33:39.412Z,13.35
2022-11-16T18:36:46.390Z,13.27
2022-11-16T18:39:50.086Z,13.29
2022-11-16T18:42:54.024Z,13.28
2022-11-16T18:45:58.157Z,13.28
2022-11-16T18:49:02.450Z,13.22
2022-11-16T18:52:07.561Z,13.25
2022-11-16T18:55:11.612Z,13.25
2022-11-16T18:58:43.374Z,13.21
2022-11-16T19:01:38.779Z,13.17
2022-11-16T19:04:42.730Z,13.18
2022-11-16T19:07:47.835Z,13.15
2022-11-16T19:10:51.213Z,13.23
2022-11-16T19:13:57.143Z,13.19
2022-11-16T19:17:00.977Z,13.19
2022-11-16T19:20:05.047Z,13.09
2022-11-16T19:23:09.838Z,12.98
2022-11-16T19:26:14.954Z,13.06
2022-11-16T19:29:18.333Z,13.07
2022-11-16T19:32:22.044Z,13.11
2022-11-16T19:35:25.390Z,13.11
2022-11-16T19:38:31.918Z,13.06
2022-11-16T19:41:35.534Z,13.13
2022-11-16T19:44:39.332Z,13.12
2022-11-16T19:47:42.733Z,13.07
2022-11-16T19:50:46.498Z,12.92
2022-11-16T19:53:51.645Z,12.90
2022-11-16T19:56:55.511Z,12.97
2022-11-16T19:59:58.971Z,13.03
2022-11-16T20:03:02.674Z,13.05
2022-11-16T20:06:08.602Z,13.05
2022-11-16T20:09:13.697Z,13.02
2022-11-16T20:12:17.067Z,13.00
2022-11-16T20:15:22.658Z,13.04
2022-11-16T20:18:26.014Z,12.99
2022-11-16T20:21:33.170Z,13.05
2022-11-16T20:24:37.941Z,13.07
2022-11-16T20:27:41.576Z,13.09
2022-11-16T20:30:47.208Z,13.04
2022-11-16T20:33:52.541Z,13.10
2022-11-16T20:36:56.189Z,13.11
2022-11-16T20:40:02.351Z,13.07
2022-11-16T20:43:09.142Z,13.11
2022-11-16T20:46:15.211Z,13.10
2022-11-16T20:49:18.596Z,13.10
2022-11-16T20:52:22.375Z,13.02
2022-11-16T20:55:27.100Z,13.04
2022-11-16T20:58:31.239Z,13.06
2022-11-16T21:01:35.167Z,13.14
2022-11-16T21:04:38.952Z,13.15
2022-11-16T21:07:43.915Z,13.18
2022-11-16T21:10:49.925Z,13.12
2022-11-16T21:14:11.612Z,13.07
2022-11-16T21:17:15.242Z,12.87
2022-11-16T21:20:28.147Z,13.06
2022-11-16T21:23:34.645Z,13.03
2022-11-16T21:26:39.843Z,13.04
2022-11-16T21:29:43.620Z,13.02
2022-11-16T21:32:47.277Z,13.09
2022-11-16T21:35:53.077Z,13.12
2022-11-16T21:38:59.264Z,13.15
2022-11-16T21:42:05.675Z,12.98
2022-11-16T21:45:11.020Z,12.77
2022-11-16T21:48:15.499Z,12.94
2022-11-16T21:51:20.375Z,13.01
2022-11-16T21:54:45.056Z,13.07
2022-11-16T21:57:50.256Z,13.06
2022-11-16T22:00:56.471Z,13.09
2022-11-16T22:04:17.985Z,13.11
2022-11-16T22:07:34.325Z,13.14
2022-11-16T22:10:38.883Z,13.14
2022-11-16T22:13:45.159Z,13.15
2022-11-16T22:16:49.057Z,13.19
2022-11-16T22:19:53.865Z,13.08
2022-11-16T22:22:57.793Z,12.99
2022-11-16T22:26:04.020Z,13.03
2022-11-16T22:29:09.906Z,12.69
2022-11-16T22:32:15.095Z,12.88
2022-11-16T22:35:19.611Z,13.02
2022-11-16T22:38:24.708Z,13.08
2022-11-16T22:41:30.891Z,13.13
2022-11-16T22:44:36.637Z,13.16
2022-11-16T22:47:42.010Z,13.20
2022-11-16T22:50:46.311Z,13.23
2022-11-16T22:53:53.906Z,13.26
2022-11-16T22:57:17.223Z,13.29
2022-11-16T23:00:22.839Z,13.32
2022-11-16T23:03:27.491Z,13.23
2022-11-16T23:06:31.270Z,13.15
2022-11-16T23:09:36.314Z,13.18
2022-11-16T23:12:57.962Z,13.26
2022-11-16T23:16:07.377Z,13.26
2022-11-16T23:19:27.485Z,13.26
2022-11-16T23:22:49.668Z,13.13
2022-11-16T23:26:11.732Z,13.19
2022-11-16T23:29:16.988Z,13.23
2022-11-16T23:32:22.441Z,13.20
2022-11-16T23:35:26.760Z,13.14
2022-11-16T23:38:30.939Z,13.21
2022-11-16T23:41:52.923Z,13.18
2022-11-16T23:44:57.132Z,13.18
2022-11-16T23:48:03.025Z,13.17
2022-11-16T23:51:07.134Z,13.13
2022-11-16T23:54:11.633Z,13.09
2022-11-16T23:57:16.053Z,13.09
